createdAt,value
2019-01-04T00:02:08.176Z,88.00
2019-01-04T00:04:39.652Z,93.25
2019-01-04T00:07:11.182Z,85.00
2019-01-04T00:09:42.748Z,92.50
2019-01-04T00:12:14.140Z,97.00
2019-01-04T00:14:46.010Z,93.75
2019-01-04T00:17:17.238Z,96.00
2019-01-04T00:19:48.527Z,85.50
2019-01-04T00:22:20.217Z,91.00
2019-01-04T00:24:51.850Z,92.75
2019-01-04T00:27:23.504Z,88.00
2019-01-04T00:29:55.261Z,93.25
2019-01-04T00:32:26.653Z,95.00
2019-01-04T00:34:58.383Z,97.00
2019-01-04T00:37:29.903Z,92.00
2019-01-04T00:40:01.132Z,97.25
2019-01-04T00:42:32.386Z,98.75
2019-01-04T00:45:04.226Z,96.75
2019-01-04T00:47:35.730Z,98.50
2019-01-04T00:50:08.195Z,99.50
2019-01-04T00:52:39.821Z,100.25
2019-01-04T00:55:47.145Z,102.00
2019-01-04T00:59:00.879Z,106.00
2019-01-04T01:02:06.941Z,112.00
2019-01-04T01:05:16.895Z,101.75
2019-01-04T01:08:35.975Z,99.00
2019-01-04T01:12:01.095Z,106.75
2019-01-04T01:15:13.039Z,110.75
2019-01-04T01:18:18.924Z,102.75
2019-01-04T01:21:21.115Z,102.25
2019-01-04T01:24:33.919Z,108.00
2019-01-04T01:27:41.540Z,99.75
2019-01-04T01:31:09.795Z,95.50
2019-01-04T01:34:09.580Z,106.00
2019-01-04T01:37:30.118Z,106.00
2019-01-04T01:40:32.685Z,106.25
2019-01-04T01:43:49.183Z,92.25
2019-01-04T01:46:53.201Z,98.25
2019-01-04T01:49:59.270Z,114.50
2019-01-04T01:52:34.583Z,116.75
2019-01-04T01:55:06.236Z,116.25
2019-01-04T01:57:37.668Z,123.00
2019-01-04T02:00:09.097Z,126.00
2019-01-04T02:02:42.105Z,127.00
2019-01-04T02:05:13.714Z,134.00
2019-01-04T02:07:45.228Z,144.25
2019-01-04T02:10:16.369Z,144.25
2019-01-04T02:12:47.663Z,163.50
2019-01-04T02:15:18.843Z,180.00
2019-01-04T02:17:50.478Z,170.25
2019-01-04T02:20:21.750Z,184.75
2019-01-04T02:22:53.018Z,186.00
2019-01-04T02:25:24.201Z,170.25
2019-01-04T02:27:55.672Z,184.50
2019-01-04T02:30:27.091Z,176.25
2019-01-04T02:32:58.833Z,159.50
2019-01-04T02:35:30.004Z,150.75
2019-01-04T02:38:01.318Z,158.00
2019-01-04T02:40:32.764Z,147.00
2019-01-04T02:43:05.063Z,142.50
2019-01-04T02:45:36.226Z,159.00
2019-01-04T02:48:07.506Z,160.50
2019-01-04T02:50:39.178Z,160.50
2019-01-04T02:53:10.416Z,159.75
2019-01-04T02:55:41.833Z,164.50
2019-01-04T02:58:13.258Z,166.25
2019-01-04T03:00:44.669Z,156.00
2019-01-04T03:03:16.380Z,157.00
2019-01-04T03:05:47.643Z,159.75
2019-01-04T03:08:19.120Z,142.00
2019-01-04T03:10:50.666Z,144.00
2019-01-04T03:13:22.342Z,141.00
2019-01-04T03:15:53.792Z,146.00
2019-01-04T03:18:25.754Z,151.00
2019-01-04T03:20:56.903Z,154.50
2019-01-04T03:23:28.177Z,150.00
2019-01-04T03:25:59.571Z,139.50
2019-01-04T03:28:31.332Z,158.75
2019-01-04T03:31:02.806Z,142.00
2019-01-04T03:33:34.724Z,149.50
2019-01-04T03:36:06.202Z,147.75
2019-01-04T03:38:37.615Z,139.00
2019-01-04T03:41:09.194Z,141.00
2019-01-04T03:43:40.419Z,129.75
2019-01-04T03:46:11.427Z,116.75
2019-01-04T03:48:43.122Z,118.50
2019-01-04T03:51:14.484Z,127.25
2019-01-04T03:53:45.815Z,129.25
2019-01-04T03:56:17.377Z,116.25
2019-01-04T03:58:49.400Z,119.75
2019-01-04T04:01:20.716Z,117.75
2019-01-04T04:03:52.442Z,111.75
2019-01-04T04:06:23.997Z,110.75
2019-01-04T04:08:55.312Z,117.75
2019-01-04T04:11:26.358Z,121.00
2019-01-04T04:13:58.136Z,118.00
2019-01-04T04:16:29.507Z,110.50
2019-01-04T04:19:01.138Z,103.00
2019-01-04T04:21:32.690Z,110.00
2019-01-04T04:24:04.454Z,110.25
2019-01-04T04:26:36.003Z,105.50
2019-01-04T04:29:08.063Z,108.00
2019-01-04T04:31:39.119Z,111.75
2019-01-04T04:34:10.962Z,104.50
2019-01-04T04:36:42.034Z,106.75
2019-01-04T04:39:13.775Z,98.50
2019-01-04T04:41:44.926Z,102.75
2019-01-04T04:44:16.223Z,119.75
2019-01-04T04:46:47.492Z,117.25
2019-01-04T04:49:18.768Z,110.00
2019-01-04T04:51:49.903Z,100.75
2019-01-04T04:54:21.212Z,105.50
2019-01-04T04:56:52.431Z,105.50
2019-01-04T04:59:24.094Z,103.00
2019-01-04T05:01:55.129Z,103.25
2019-01-04T05:04:26.820Z,101.25
2019-01-04T05:06:58.005Z,106.50
2019-01-04T05:09:29.510Z,104.75
2019-01-04T05:12:00.982Z,107.75
2019-01-04T05:14:32.237Z,90.75
2019-01-04T05:17:03.661Z,92.50
2019-01-04T05:19:35.475Z,103.25
2019-01-04T05:22:06.937Z,96.00
2019-01-04T05:24:38.177Z,87.50
2019-01-04T05:27:09.570Z,90.00
2019-01-04T05:29:41.451Z,92.25
2019-01-04T05:32:12.718Z,94.25
2019-01-04T05:34:44.531Z,93.80
2019-01-04T05:37:15.816Z,90.00
2019-01-04T05:39:47.656Z,88.20
2019-01-04T05:42:18.863Z,91.00
2019-01-04T05:44:50.233Z,95.25
2019-01-04T05:47:21.397Z,94.00
2019-01-04T05:49:53.132Z,94.40
2019-01-04T05:52:24.277Z,85.40
2019-01-04T05:54:55.854Z,92.80
2019-01-04T05:57:27.260Z,88.80
2019-01-04T05:59:58.973Z,86.40
2019-01-04T06:02:30.317Z,80.20
2019-01-04T06:05:02.242Z,81.80
2019-01-04T06:07:33.771Z,89.40
2019-01-04T06:10:05.470Z,91.20
2019-01-04T06:12:36.695Z,93.60
2019-01-04T06:15:08.309Z,92.20
2019-01-04T06:17:39.501Z,99.20
2019-01-04T06:20:10.894Z,93.20
2019-01-04T06:22:42.117Z,84.40
2019-01-04T06:25:13.397Z,87.80
2019-01-04T06:27:44.603Z,87.60
2019-01-04T06:30:16.446Z,89.40
2019-01-04T06:32:47.500Z,84.20
2019-01-04T06:35:19.302Z,85.80
2019-01-04T06:37:50.974Z,75.80
2019-01-04T06:40:22.528Z,78.80
2019-01-04T06:42:54.074Z,72.40
2019-01-04T06:45:25.703Z,72.80
2019-01-04T06:47:57.066Z,68.60
2019-01-04T06:50:29.923Z,72.20
2019-01-04T06:53:01.371Z,67.20
2019-01-04T06:55:54.317Z,69.20
2019-01-04T06:58:26.118Z,72.20
2019-01-04T07:00:57.794Z,72.20
2019-01-04T07:03:32.550Z,74.00
2019-01-04T07:06:04.708Z,69.00
2019-01-04T07:08:36.174Z,71.00
2019-01-04T07:11:07.543Z,68.40
2019-01-04T07:13:39.174Z,65.80
2019-01-04T07:16:11.074Z,73.20
2019-01-04T07:18:42.686Z,72.00
2019-01-04T07:21:14.811Z,65.80
2019-01-04T07:23:46.164Z,58.40
2019-01-04T07:26:18.504Z,56.20
2019-01-04T07:28:49.968Z,59.40
2019-01-04T07:31:21.803Z,57.80
2019-01-04T07:33:53.203Z,55.20
2019-01-04T07:36:25.492Z,52.60
2019-01-04T07:38:56.712Z,53.20
2019-01-04T07:41:28.250Z,59.20
2019-01-04T07:43:59.376Z,48.20
2019-01-04T07:46:30.866Z,47.80
2019-01-04T07:49:02.272Z,50.00
2019-01-04T07:51:33.637Z,53.20
2019-01-04T07:54:05.217Z,50.60
2019-01-04T07:56:37.024Z,48.00
2019-01-04T07:59:08.528Z,59.60
2019-01-04T08:01:39.997Z,53.20
2019-01-04T08:04:12.297Z,51.80
2019-01-04T08:06:44.960Z,57.80
2019-01-04T08:09:16.331Z,53.00
2019-01-04T08:11:48.110Z,46.80
2019-01-04T08:14:19.425Z,46.60
2019-01-04T08:16:51.132Z,50.00
2019-01-04T08:19:22.341Z,43.60
2019-01-04T08:21:53.913Z,44.00
2019-01-04T08:24:25.529Z,46.60
2019-01-04T08:26:57.130Z,45.20
2019-01-04T08:29:28.545Z,46.60
2019-01-04T08:32:00.525Z,46.40
2019-01-04T08:34:31.877Z,47.40
2019-01-04T08:37:03.812Z,47.00
2019-01-04T08:39:35.274Z,44.80
2019-01-04T08:42:07.158Z,45.20
2019-01-04T08:44:38.880Z,43.40
2019-01-04T08:47:10.256Z,39.80
2019-01-04T08:49:41.553Z,35.00
2019-01-04T08:52:12.988Z,37.20
2019-01-04T08:54:44.458Z,43.60
2019-01-04T08:57:15.788Z,43.60
2019-01-04T08:59:47.141Z,44.80
2019-01-04T09:02:18.484Z,45.20
2019-01-04T09:04:50.312Z,50.00
2019-01-04T09:07:21.982Z,55.00
2019-01-04T09:09:53.511Z,52.60
2019-01-04T09:12:25.121Z,50.20
2019-01-04T09:14:56.409Z,55.20
2019-01-04T09:17:27.955Z,52.20
2019-01-04T09:20:16.131Z,46.00
2019-01-04T09:22:49.544Z,43.20
2019-01-04T09:25:21.495Z,42.80
2019-01-04T09:27:53.297Z,45.00
2019-01-04T09:30:25.553Z,47.00
2019-01-04T09:32:57.169Z,52.00
2019-01-04T09:35:28.629Z,51.60
2019-01-04T09:38:00.722Z,53.00
2019-01-04T09:40:31.867Z,54.00
2019-01-04T09:43:03.676Z,57.20
2019-01-04T09:45:34.819Z,55.40
2019-01-04T09:48:06.215Z,49.60
2019-01-04T09:50:38.202Z,56.00
2019-01-04T09:53:10.368Z,54.20
2019-01-04T09:55:41.560Z,52.20
2019-01-04T09:58:13.306Z,52.20
2019-01-04T10:00:46.137Z,46.60
2019-01-04T10:03:18.772Z,53.20
2019-01-04T10:05:50.631Z,47.20
2019-01-04T10:08:23.868Z,49.60
2019-01-04T10:10:55.300Z,55.00
2019-01-04T10:13:27.053Z,51.60
2019-01-04T10:15:58.335Z,52.40
2019-01-04T10:18:30.276Z,55.40
2019-01-04T10:21:02.109Z,49.20
2019-01-04T10:23:34.087Z,54.20
2019-01-04T10:26:05.540Z,46.00
2019-01-04T10:28:36.920Z,57.40
2019-01-04T10:31:08.983Z,55.20
2019-01-04T10:33:40.491Z,52.20
2019-01-04T10:36:12.285Z,55.20
2019-01-04T10:38:46.451Z,52.60
2019-01-04T10:41:17.762Z,56.20
2019-01-04T10:43:49.674Z,48.60
2019-01-04T10:46:21.022Z,54.00
2019-01-04T10:48:52.497Z,56.40
2019-01-04T10:51:23.948Z,58.20
2019-01-04T10:53:56.101Z,52.80
2019-01-04T10:56:27.626Z,49.20
2019-01-04T10:58:59.252Z,53.60
2019-01-04T11:01:30.787Z,55.00
2019-01-04T11:04:02.467Z,52.20
2019-01-04T11:06:34.318Z,50.00
2019-01-04T11:09:09.630Z,46.60
2019-01-04T11:11:40.795Z,44.20
2019-01-04T11:14:12.900Z,48.40
2019-01-04T11:16:44.663Z,46.60
2019-01-04T11:19:16.230Z,48.60
2019-01-04T11:21:49.142Z,47.00
2019-01-04T11:24:54.832Z,51.40
2019-01-04T11:27:50.132Z,48.20
2019-01-04T11:30:47.815Z,46.20
2019-01-04T11:33:37.388Z,50.60
2019-01-04T11:36:35.951Z,47.20
2019-01-04T11:39:34.697Z,48.40
2019-01-04T11:43:05.303Z,49.80
2019-01-04T11:45:55.439Z,52.80
2019-01-04T11:49:06.591Z,46.40
2019-01-04T11:52:07.250Z,50.60
2019-01-04T11:54:39.037Z,49.80
2019-01-04T11:57:10.677Z,49.00
2019-01-04T11:59:42.139Z,49.20
2019-01-04T12:02:14.569Z,47.80
2019-01-04T12:04:49.297Z,50.00
2019-01-04T12:07:20.973Z,45.20
2019-01-04T12:09:53.220Z,49.20
2019-01-04T12:12:24.916Z,50.80
2019-01-04T12:14:56.605Z,48.60
2019-01-04T12:17:28.083Z,50.40
2019-01-04T12:19:59.676Z,50.20
2019-01-04T12:22:31.098Z,53.60
2019-01-04T12:25:03.050Z,50.20
2019-01-04T12:27:34.308Z,64.40
2019-01-04T12:30:05.800Z,79.20
2019-01-04T12:32:37.219Z,72.00
2019-01-04T12:35:08.558Z,74.40
2019-01-04T12:37:40.972Z,75.20
2019-01-04T12:40:12.665Z,74.20
2019-01-04T12:42:44.435Z,72.60
2019-01-04T12:45:16.076Z,71.60
2019-01-04T12:47:48.622Z,68.40
2019-01-04T12:50:20.022Z,76.60
2019-01-04T12:52:51.639Z,83.20
2019-01-04T12:55:23.015Z,86.40
2019-01-04T12:57:54.361Z,89.80
2019-01-04T13:00:25.686Z,88.00
2019-01-04T13:02:57.137Z,83.80
2019-01-04T13:05:28.639Z,91.40
2019-01-04T13:08:00.345Z,86.60
2019-01-04T13:10:32.860Z,91.40
2019-01-04T13:13:04.305Z,99.00
2019-01-04T13:15:35.634Z,95.50
2019-01-04T13:18:06.997Z,106.75
2019-01-04T13:20:38.315Z,103.25
2019-01-04T13:23:09.731Z,96.75
2019-01-04T13:25:41.327Z,92.50
2019-01-04T13:28:12.799Z,96.40
2019-01-04T13:30:44.579Z,93.60
2019-01-04T13:33:16.270Z,96.50
2019-01-04T13:35:47.788Z,100.75
2019-01-04T13:38:20.127Z,100.50
2019-01-04T13:40:52.217Z,101.00
2019-01-04T13:43:23.577Z,103.50
2019-01-04T13:45:54.866Z,108.75
2019-01-04T13:48:26.301Z,102.75
2019-01-04T13:50:57.740Z,104.25
2019-01-04T13:53:28.949Z,106.00
2019-01-04T13:56:00.203Z,108.00
2019-01-04T13:58:31.620Z,111.25
2019-01-04T14:01:03.140Z,110.25
2019-01-04T14:03:34.549Z,102.75
2019-01-04T14:06:06.887Z,109.75
2019-01-04T14:08:38.420Z,106.00
2019-01-04T14:11:11.151Z,109.50
2019-01-04T14:13:42.416Z,108.75
2019-01-04T14:16:14.304Z,109.75
2019-01-04T14:18:45.700Z,109.00
2019-01-04T14:21:17.020Z,109.75
2019-01-04T14:23:48.303Z,118.50
2019-01-04T14:26:19.814Z,115.25
2019-01-04T14:28:51.343Z,117.75
2019-01-04T14:31:22.732Z,112.25
2019-01-04T14:33:53.890Z,134.25
2019-01-04T14:36:25.597Z,135.75
2019-01-04T14:38:56.761Z,147.75
2019-01-04T14:41:29.100Z,147.00
2019-01-04T14:44:00.307Z,147.25
2019-01-04T14:46:31.879Z,183.25
2019-01-04T14:49:03.226Z,152.50
2019-01-04T14:51:34.898Z,150.25
2019-01-04T14:54:06.522Z,147.50
2019-01-04T14:56:38.431Z,150.50
2019-01-04T14:59:09.910Z,161.25
2019-01-04T15:01:41.259Z,166.50
2019-01-04T15:04:12.304Z,167.50
2019-01-04T15:06:43.828Z,173.50
2019-01-04T15:09:15.209Z,165.25
2019-01-04T15:11:47.299Z,159.00
2019-01-04T15:14:19.011Z,153.00
2019-01-04T15:16:50.704Z,174.50
2019-01-04T15:19:22.388Z,172.75
2019-01-04T15:21:53.733Z,163.00
2019-01-04T15:24:24.961Z,179.50
2019-01-04T15:26:56.645Z,176.25
2019-01-04T15:29:27.871Z,183.50
2019-01-04T15:31:59.087Z,184.25
2019-01-04T15:34:30.777Z,185.25
2019-01-04T15:37:02.228Z,187.25
2019-01-04T15:39:34.436Z,198.50
2019-01-04T15:42:06.436Z,189.25
2019-01-04T15:44:38.116Z,191.75
2019-01-04T15:47:10.037Z,193.00
2019-01-04T15:49:41.635Z,194.00
2019-01-04T15:52:13.813Z,205.50
2019-01-04T15:54:45.128Z,198.75
2019-01-04T15:57:16.646Z,194.25
2019-01-04T15:59:47.978Z,199.50
2019-01-04T16:02:19.561Z,192.50
2019-01-04T16:04:50.758Z,186.75
2019-01-04T16:07:22.397Z,190.25
2019-01-04T16:09:54.067Z,192.75
2019-01-04T16:12:26.356Z,181.25
2019-01-04T16:14:58.722Z,173.75
2019-01-04T16:17:30.518Z,180.75
2019-01-04T16:20:01.696Z,179.50
2019-01-04T16:22:33.453Z,178.75
2019-01-04T16:25:05.133Z,182.25
2019-01-04T16:27:37.040Z,179.75
2019-01-04T16:30:10.465Z,174.75
2019-01-04T16:32:42.035Z,175.75
2019-01-04T16:35:13.553Z,180.75
2019-01-04T16:37:45.141Z,175.25
2019-01-04T16:40:16.575Z,174.50
2019-01-04T16:42:48.642Z,170.25
2019-01-04T16:45:20.388Z,172.25
2019-01-04T16:47:52.102Z,183.75
2019-01-04T16:50:24.105Z,184.00
2019-01-04T16:52:59.605Z,173.75
2019-01-04T16:55:29.690Z,169.50
2019-01-04T16:58:01.302Z,167.50
2019-01-04T17:00:32.720Z,170.75
2019-01-04T17:03:04.463Z,180.25
2019-01-04T17:05:35.932Z,168.75
2019-01-04T17:08:07.750Z,173.00
2019-01-04T17:10:39.074Z,161.50
2019-01-04T17:13:11.548Z,158.25
2019-01-04T17:15:42.779Z,162.25
2019-01-04T17:18:14.261Z,172.00
2019-01-04T17:20:45.997Z,163.00
2019-01-04T17:23:17.406Z,161.75
2019-01-04T17:25:48.830Z,156.75
2019-01-04T17:28:20.265Z,156.50
2019-01-04T17:30:51.729Z,162.25
2019-01-04T17:33:23.296Z,157.00
2019-01-04T17:35:55.113Z,165.00
2019-01-04T17:38:26.811Z,160.75
2019-01-04T17:40:58.292Z,161.25
2019-01-04T17:43:30.056Z,155.50
2019-01-04T17:46:01.576Z,151.00
2019-01-04T17:48:33.154Z,155.25
2019-01-04T17:51:05.021Z,152.75
2019-01-04T17:53:36.430Z,154.25
2019-01-04T17:56:07.820Z,152.25
2019-01-04T17:58:39.703Z,146.25
2019-01-04T18:01:11.119Z,152.00
2019-01-04T18:03:42.802Z,150.25
2019-01-04T18:06:14.245Z,149.75
2019-01-04T18:08:45.727Z,138.50
2019-01-04T18:11:17.552Z,149.00
2019-01-04T18:13:49.937Z,140.00
2019-01-04T18:16:21.240Z,138.50
2019-01-04T18:18:53.082Z,128.00
2019-01-04T18:21:24.509Z,110.00
2019-01-04T18:23:56.082Z,124.00
2019-01-04T18:26:27.263Z,115.25
2019-01-04T18:28:58.800Z,114.50
2019-01-04T18:31:30.147Z,123.25
2019-01-04T18:34:01.459Z,137.25
2019-01-04T18:36:32.821Z,126.50
2019-01-04T18:39:04.885Z,128.00
2019-01-04T18:41:36.894Z,125.00
2019-01-04T18:44:08.662Z,127.50
2019-01-04T18:46:40.520Z,130.00
2019-01-04T18:49:11.987Z,131.50
2019-01-04T18:51:43.630Z,128.75
2019-01-04T18:54:15.398Z,136.00
2019-01-04T18:56:46.900Z,135.50
2019-01-04T18:59:18.765Z,132.00
2019-01-04T19:01:51.247Z,134.75
2019-01-04T19:04:23.066Z,139.25
2019-01-04T19:06:55.529Z,123.25
2019-01-04T19:09:26.892Z,127.25
2019-01-04T19:11:58.279Z,112.25
2019-01-04T19:14:30.564Z,135.00
2019-01-04T19:17:01.961Z,136.25
2019-01-04T19:19:33.557Z,158.50
2019-01-04T19:22:04.964Z,135.50
2019-01-04T19:24:36.382Z,146.50
2019-01-04T19:27:09.257Z,138.00
2019-01-04T19:29:40.511Z,127.50
2019-01-04T19:32:11.943Z,132.75
2019-01-04T19:34:43.700Z,134.00
2019-01-04T19:37:15.459Z,129.00
2019-01-04T19:39:46.881Z,125.25
2019-01-04T19:42:18.145Z,126.25
2019-01-04T19:44:50.484Z,133.75
2019-01-04T19:47:22.056Z,136.50
2019-01-04T19:49:54.356Z,133.75
2019-01-04T19:52:25.833Z,137.75
2019-01-04T19:54:57.218Z,132.75
2019-01-04T19:57:28.441Z,133.25
2019-01-04T20:00:00.205Z,129.75
2019-01-04T20:02:31.769Z,127.50
2019-01-04T20:05:03.541Z,123.50
2019-01-04T20:08:28.300Z,127.00
2019-01-04T20:12:15.186Z,137.00
2019-01-04T20:15:47.649Z,117.75
2019-01-04T20:18:40.521Z,133.75
2019-01-04T20:21:37.137Z,126.00
2019-01-04T20:24:16.486Z,130.50
2019-01-04T20:27:12.916Z,134.75
2019-01-04T20:30:01.474Z,127.25
2019-01-04T20:32:50.515Z,126.25
2019-01-04T20:35:47.467Z,120.50
2019-01-04T20:38:40.728Z,135.50
2019-01-04T20:41:29.596Z,128.00
2019-01-04T20:44:27.776Z,126.75
2019-01-04T20:47:21.249Z,138.75
2019-01-04T20:50:13.370Z,136.50
2019-01-04T20:53:06.518Z,133.50
2019-01-04T20:56:11.862Z,140.50
2019-01-04T20:59:18.037Z,138.00
2019-01-04T21:02:06.785Z,142.25
2019-01-04T21:04:55.842Z,137.75
2019-01-04T21:07:45.021Z,126.25
2019-01-04T21:10:38.273Z,138.00
2019-01-04T21:13:27.136Z,124.50
2019-01-04T21:16:21.103Z,128.50
2019-01-04T21:19:20.527Z,128.50
2019-01-04T21:22:12.557Z,132.75
2019-01-04T21:25:17.179Z,120.75
2019-01-04T21:28:14.439Z,137.25
2019-01-04T21:31:19.781Z,123.50
2019-01-04T21:34:28.309Z,124.75
2019-01-04T21:37:17.157Z,122.50
2019-01-04T21:40:22.594Z,123.75
2019-01-04T21:43:12.689Z,124.00
2019-01-04T21:46:02.985Z,119.25
2019-01-04T21:49:02.498Z,128.50
2019-01-04T21:52:11.304Z,119.25
2019-01-04T21:55:11.841Z,117.75
2019-01-04T21:58:01.205Z,121.00
2019-01-04T22:01:03.382Z,122.50
2019-01-04T22:03:53.980Z,122.00
2019-01-04T22:06:48.616Z,122.00
2019-01-04T22:09:47.781Z,116.25
2019-01-04T22:12:34.379Z,120.75
2019-01-04T22:15:43.095Z,109.50
2019-01-04T22:18:42.908Z,117.75
2019-01-04T22:21:45.296Z,113.25
2019-01-04T22:24:43.722Z,117.75
2019-01-04T22:27:37.107Z,116.25
2019-01-04T22:30:28.237Z,116.00
2019-01-04T22:33:13.110Z,118.00
2019-01-04T22:36:10.362Z,114.75
2019-01-04T22:39:06.782Z,121.25
2019-01-04T22:41:55.343Z,119.75
2019-01-04T22:44:48.606Z,108.75
2019-01-04T22:47:45.130Z,114.75
2019-01-04T22:50:34.703Z,108.00
2019-01-04T22:53:27.677Z,119.75
2019-01-04T22:56:18.055Z,119.00
2019-01-04T22:59:17.566Z,108.75
2019-01-04T23:02:07.042Z,119.00
2019-01-04T23:04:55.894Z,119.75
2019-01-04T23:07:46.294Z,116.50
2019-01-04T23:10:39.145Z,114.75
2019-01-04T23:13:44.681Z,121.50
2019-01-04T23:16:33.140Z,118.00
2019-01-04T23:19:26.605Z,116.75
2019-01-04T23:22:31.959Z,113.75
2019-01-04T23:25:25.817Z,115.75
2019-01-04T23:28:15.333Z,127.75
2019-01-04T23:31:06.293Z,124.00
2019-01-04T23:33:55.054Z,123.00
2019-01-04T23:36:44.018Z,124.75
2019-01-04T23:39:43.121Z,122.00
2019-01-04T23:42:32.282Z,114.25
2019-01-04T23:45:34.851Z,120.50
2019-01-04T23:48:24.020Z,113.50
2019-01-04T23:51:05.298Z,123.25
2019-01-04T23:54:01.427Z,121.25
2019-01-04T23:56:57.572Z,121.00
2019-01-04T23:59:46.104Z,115.00
